sensor_id;sensor_type;location;lat;lon;timestamp;P1;durP1;ratioP1;P2;durP2;ratioP2
65174;SDS011;51761;42.126;24.752;2023-07-02T19:31:27;57.95;;;29.98;;
65174;SDS011;51761;42.126;24.752;2023-07-02T19:34:51;23.23;;;13.93;;
65174;SDS011;51761;42.126;24.752;2023-07-02T19:38:12;23.58;;;10.88;;
65174;SDS011;51761;42.126;24.752;2023-07-02T19:40:40;20.30;;;11.00;;
65174;SDS011;51761;42.126;24.752;2023-07-02T19:43:05;18.48;;;11.00;;
65174;SDS011;51761;42.126;24.752;2023-07-02T19:45:31;28.02;;;10.35;;
65174;SDS011;51761;42.126;24.752;2023-07-02T19:47:56;19.15;;;10.18;;
65174;SDS011;51761;42.126;24.752;2023-07-02T19:50:21;20.23;;;11.93;;
65174;SDS011;51761;42.126;24.752;2023-07-02T19:52:47;22.23;;;11.15;;
65174;SDS011;51761;42.126;24.752;2023-07-02T19:55:13;18.70;;;10.45;;
65174;SDS011;51761;42.126;24.752;2023-07-02T19:57:39;22.30;;;12.05;;
65174;SDS011;51761;42.126;24.752;2023-07-02T20:00:05;21.73;;;10.88;;
65174;SDS011;51761;42.126;24.752;2023-07-02T20:02:33;22.90;;;12.38;;
65174;SDS011;51761;42.126;24.752;2023-07-02T20:04:59;17.15;;;10.35;;
65174;SDS011;51761;42.126;24.752;2023-07-02T20:07:30;20.52;;;11.13;;
65174;SDS011;51761;42.126;24.752;2023-07-02T20:09:56;25.67;;;13.63;;
65174;SDS011;51761;42.126;24.752;2023-07-02T20:12:22;23.65;;;12.45;;
65174;SDS011;51761;42.126;24.752;2023-07-02T20:14:53;29.02;;;14.45;;
65174;SDS011;51761;42.126;24.752;2023-07-02T20:17:19;20.95;;;11.85;;
65174;SDS011;51761;42.126;24.752;2023-07-02T20:19:45;17.17;;;10.68;;
65174;SDS011;51761;42.126;24.752;2023-07-02T20:22:14;17.25;;;10.43;;
65174;SDS011;51761;42.126;24.752;2023-07-02T20:24:41;17.20;;;10.20;;
65174;SDS011;51761;42.126;24.752;2023-07-02T20:27:08;18.27;;;11.27;;
65174;SDS011;51761;42.126;24.752;2023-07-02T20:29:33;21.33;;;10.35;;
65174;SDS011;51761;42.126;24.752;2023-07-02T20:31:59;19.58;;;10.75;;
65174;SDS011;51761;42.126;24.752;2023-07-02T20:34:24;16.77;;;10.55;;
65174;SDS011;51761;42.126;24.752;2023-07-02T20:36:51;23.40;;;10.98;;
65174;SDS011;51761;42.126;24.752;2023-07-02T20:39:19;16.80;;;11.30;;
65174;SDS011;51761;42.126;24.752;2023-07-02T20:41:45;26.92;;;10.90;;
65174;SDS011;51761;42.126;24.752;2023-07-02T20:44:15;19.73;;;11.10;;
65174;SDS011;51761;42.126;24.752;2023-07-02T20:46:41;17.95;;;10.43;;
65174;SDS011;51761;42.126;24.752;2023-07-02T20:49:17;19.20;;;10.00;;
65174;SDS011;51761;42.126;24.752;2023-07-02T20:51:46;18.20;;;10.88;;
65174;SDS011;51761;42.126;24.752;2023-07-02T20:54:15;20.27;;;11.10;;
65174;SDS011;51761;42.126;24.752;2023-07-02T20:56:42;20.27;;;11.32;;
65174;SDS011;51761;42.126;24.752;2023-07-02T20:59:12;24.25;;;10.85;;
65174;SDS011;51761;42.126;24.752;2023-07-02T21:01:37;26.27;;;11.98;;
65174;SDS011;51761;42.126;24.752;2023-07-02T21:04:02;19.42;;;11.10;;
65174;SDS011;51761;42.126;24.752;2023-07-02T21:06:34;21.27;;;10.55;;
65174;SDS011;51761;42.126;24.752;2023-07-02T21:09:02;16.48;;;9.60;;
65174;SDS011;51761;42.126;24.752;2023-07-02T21:11:32;21.67;;;11.45;;
65174;SDS011;51761;42.126;24.752;2023-07-02T21:13:58;17.00;;;10.32;;
65174;SDS011;51761;42.126;24.752;2023-07-02T21:16:23;22.50;;;10.77;;
65174;SDS011;51761;42.126;24.752;2023-07-02T21:18:49;19.25;;;10.60;;
65174;SDS011;51761;42.126;24.752;2023-07-02T21:21:14;19.27;;;10.27;;
65174;SDS011;51761;42.126;24.752;2023-07-02T21:23:40;26.00;;;10.45;;
65174;SDS011;51761;42.126;24.752;2023-07-02T21:26:05;30.35;;;12.15;;
65174;SDS011;51761;42.126;24.752;2023-07-02T21:28:31;20.05;;;11.40;;
65174;SDS011;51761;42.126;24.752;2023-07-02T21:30:56;20.15;;;10.50;;
65174;SDS011;51761;42.126;24.752;2023-07-02T21:33:22;16.55;;;10.02;;
65174;SDS011;51761;42.126;24.752;2023-07-02T21:35:48;15.63;;;10.25;;
65174;SDS011;51761;42.126;24.752;2023-07-02T21:38:14;19.30;;;10.70;;
65174;SDS011;51761;42.126;24.752;2023-07-02T21:40:39;20.35;;;10.15;;
65174;SDS011;51761;42.126;24.752;2023-07-02T21:43:04;21.20;;;10.70;;
65174;SDS011;51761;42.126;24.752;2023-07-02T21:45:30;22.83;;;10.80;;
65174;SDS011;51761;42.126;24.752;2023-07-02T21:47:55;22.55;;;10.68;;
65174;SDS011;51761;42.126;24.752;2023-07-02T21:50:21;23.65;;;11.90;;
65174;SDS011;51761;42.126;24.752;2023-07-02T21:52:46;24.45;;;11.02;;
65174;SDS011;51761;42.126;24.752;2023-07-02T21:55:12;18.63;;;10.85;;
65174;SDS011;51761;42.126;24.752;2023-07-02T21:57:37;19.27;;;9.95;;
65174;SDS011;51761;42.126;24.752;2023-07-02T22:00:03;17.95;;;11.02;;
65174;SDS011;51761;42.126;24.752;2023-07-02T22:02:35;16.60;;;10.25;;
65174;SDS011;51761;42.126;24.752;2023-07-02T22:05:00;16.83;;;9.48;;
65174;SDS011;51761;42.126;24.752;2023-07-02T22:07:26;18.30;;;9.55;;
65174;SDS011;51761;42.126;24.752;2023-07-02T22:09:51;21.58;;;10.27;;
65174;SDS011;51761;42.126;24.752;2023-07-02T22:12:17;22.08;;;9.43;;
65174;SDS011;51761;42.126;24.752;2023-07-02T22:14:42;17.05;;;9.93;;
65174;SDS011;51761;42.126;24.752;2023-07-02T22:17:07;16.10;;;9.82;;
65174;SDS011;51761;42.126;24.752;2023-07-02T22:19:33;17.23;;;8.70;;
65174;SDS011;51761;42.126;24.752;2023-07-02T22:21:59;15.73;;;9.82;;
65174;SDS011;51761;42.126;24.752;2023-07-02T22:24:26;15.85;;;8.82;;
65174;SDS011;51761;42.126;24.752;2023-07-02T22:26:52;27.85;;;9.07;;
65174;SDS011;51761;42.126;24.752;2023-07-02T22:29:18;16.90;;;9.35;;
65174;SDS011;51761;42.126;24.752;2023-07-02T22:31:43;16.50;;;9.20;;
65174;SDS011;51761;42.126;24.752;2023-07-02T22:34:08;15.15;;;9.07;;
65174;SDS011;51761;42.126;24.752;2023-07-02T22:36:34;15.52;;;8.82;;
65174;SDS011;51761;42.126;24.752;2023-07-02T22:39:00;19.10;;;9.77;;
65174;SDS011;51761;42.126;24.752;2023-07-02T22:41:25;23.13;;;8.77;;
65174;SDS011;51761;42.126;24.752;2023-07-02T22:43:51;19.88;;;8.90;;
65174;SDS011;51761;42.126;24.752;2023-07-02T22:46:16;17.17;;;8.43;;
65174;SDS011;51761;42.126;24.752;2023-07-02T22:48:42;18.48;;;8.98;;
65174;SDS011;51761;42.126;24.752;2023-07-02T22:51:07;15.15;;;8.82;;
65174;SDS011;51761;42.126;24.752;2023-07-02T22:53:33;12.88;;;8.77;;
65174;SDS011;51761;42.126;24.752;2023-07-02T22:56:07;20.10;;;9.52;;
65174;SDS011;51761;42.126;24.752;2023-07-02T22:58:35;17.63;;;8.57;;
65174;SDS011;51761;42.126;24.752;2023-07-02T23:01:01;15.30;;;9.02;;
65174;SDS011;51761;42.126;24.752;2023-07-02T23:03:27;16.20;;;9.52;;
65174;SDS011;51761;42.126;24.752;2023-07-02T23:05:53;16.88;;;9.48;;
65174;SDS011;51761;42.126;24.752;2023-07-02T23:08:18;17.15;;;9.68;;
65174;SDS011;51761;42.126;24.752;2023-07-02T23:10:44;14.18;;;8.88;;
65174;SDS011;51761;42.126;24.752;2023-07-02T23:13:09;20.20;;;8.65;;
65174;SDS011;51761;42.126;24.752;2023-07-02T23:15:34;18.55;;;9.30;;
65174;SDS011;51761;42.126;24.752;2023-07-02T23:18:00;15.75;;;9.25;;
65174;SDS011;51761;42.126;24.752;2023-07-02T23:20:25;29.08;;;9.13;;
65174;SDS011;51761;42.126;24.752;2023-07-02T23:22:51;17.55;;;10.07;;
65174;SDS011;51761;42.126;24.752;2023-07-02T23:25:18;16.88;;;9.02;;
65174;SDS011;51761;42.126;24.752;2023-07-02T23:27:48;17.60;;;8.90;;
65174;SDS011;51761;42.126;24.752;2023-07-02T23:30:15;17.58;;;9.73;;
65174;SDS011;51761;42.126;24.752;2023-07-02T23:32:43;16.52;;;7.90;;
65174;SDS011;51761;42.126;24.752;2023-07-02T23:35:10;17.25;;;9.18;;
65174;SDS011;51761;42.126;24.752;2023-07-02T23:37:37;16.75;;;9.50;;
65174;SDS011;51761;42.126;24.752;2023-07-02T23:40:06;18.20;;;8.77;;
65174;SDS011;51761;42.126;24.752;2023-07-02T23:42:36;18.65;;;8.55;;
65174;SDS011;51761;42.126;24.752;2023-07-02T23:45:03;11.65;;;8.13;;
65174;SDS011;51761;42.126;24.752;2023-07-02T23:47:29;14.50;;;8.07;;
65174;SDS011;51761;42.126;24.752;2023-07-02T23:49:55;16.10;;;8.02;;
65174;SDS011;51761;42.126;24.752;2023-07-02T23:52:20;17.25;;;8.77;;
65174;SDS011;51761;42.126;24.752;2023-07-02T23:54:46;14.63;;;7.97;;
65174;SDS011;51761;42.126;24.752;2023-07-02T23:57:12;24.67;;;10.07;;
65174;SDS011;51761;42.126;24.752;2023-07-02T23:59:38;17.15;;;8.27;;
